Aeroporto :
LOGIN :

Iscrizione | Disclaimer

   EN    FR    IT 

 










Sommario :    VFR   VFR Marginale   IFR   IFR Intensivo   IFR Molto Intensivo
Visibilità : 
Base nubi : 
>= 8 km
>= 3000ft
5 / 8 km
1000 / 3000 ft
1500m / 5 km
500 / 1000 ft
800 / 1500m
200 / 500 ft
< 800m
< 200 ft
Simboli :   Temporali  Nebbia  Neve Forte  Precipitazioni Forti  Vento > 20 kt
SIGMETs :   Varie  Temporali  Ghiacco  Turbolenza  Onda orograficha  Ceneri Vulcaniche






- Altitudine del aeroporto : 26 ft
- Codice IATA : GLA


EGPF - Glasgow

ULTIMO METAR :
  • 130650Z AUTO 25006KT 9999 NCD 01/01 Q0971

METARs OBSOLETI :
  • 130620Z AUTO 25005KT 9999 NCD 01/01 Q0971
  • 130550Z AUTO 26004KT 9999 NCD 02/01 Q0971
  • 130520Z AUTO 26005KT 9999 FEW031 SCT038 02/02 Q0971
  • 130450Z AUTO 24007KT 9999 BKN034 OVC041 02/02 Q0971
  • 130420Z AUTO 25005KT 9999 OVC034 03/02 Q0971

TAF TAF EGPF
Valido dal 13 a 06 ore il 14 a 06 ore UTC


130455Z 1306/1406 26007KT 9999 SCT025
TEMPO 1400/1403 BKN012
TEMPO 1403/1406 6000 RADZ BKN010
PROB30
TEMPO 1404/1406 4000 +RA BKN006
ATIS : +44 141 887 7449



MetMap, La meteo Aeronautica in un colpo d'occhio ! - Copyright ORBIFLY Dicembre 2007 - Disclaimer

ORBIFLY MET'MAP TEAM :

Programmazione e sviluppo : Alexandra Zaïnal
Concezione : Baudouin d'Aumeries
Aiuto per la programmazione : Marc-Olivier Méhu
Supporto tecnico e logistico : Manuel Goepfert
Aiuto per la traduzione : Arnaldo La Scala

Contatto : metmap@orbifly.com




FONTI E CREDITI :

   NOAA